Time;durP1;ratioP1;P1;durP2;ratioP2;P2;SDS_P1;SDS_P2;PMS_P1;PMS_P2;Temp;Humidity;BMP_temperature;BMP_pressure;BME280_temperature;BME280_humidity;BME280_pressure;Samples;Min_cycle;Max_cycle;Signal;HPM_P1;HPM_P2
2023/05/17 00:00:59;;;;;;;21.77;4.78;;;;;;;;;;6242339;23;20369;-79
2023/05/17 00:03:25;;;;;;;19.05;3.97;;;;;;;;;;6242875;23;20362;-80
2023/05/17 00:05:52;;;;;;;19.35;4.50;;;;;;;;;;6217887;23;20366;-80
2023/05/17 00:08:18;;;;;;;17.63;4.38;;;;;;;;;;6241947;23;20366;-79
2023/05/17 00:10:44;;;;;;;21.88;5.07;;;;;;;;;;6216478;23;20733;-80
2023/05/17 00:13:10;;;;;;;19.08;4.38;;;;;;;;;;6242491;23;20725;-79
2023/05/17 00:15:36;;;;;;;18.50;4.20;;;;;;;;;;6242255;23;20458;-80
2023/05/17 00:18:02;;;;;;;21.67;4.53;;;;;;;;;;6217225;23;20362;-80
2023/05/17 00:20:28;;;;;;;19.50;4.15;;;;;;;;;;6216999;23;20688;-80
2023/05/17 00:22:54;;;;;;;20.00;4.70;;;;;;;;;;6217291;23;20366;-80
2023/05/17 00:25:20;;;;;;;18.13;4.83;;;;;;;;;;6192266;23;20831;-79
2023/05/17 00:27:46;;;;;;;22.67;4.85;;;;;;;;;;6217186;23;20461;-80
2023/05/17 00:30:13;;;;;;;18.05;4.03;;;;;;;;;;6241112;23;20403;-79
2023/05/17 00:32:39;;;;;;;21.67;4.82;;;;;;;;;;6242433;23;20393;-79
2023/05/17 00:35:05;;;;;;;18.95;4.43;;;;;;;;;;6216922;23;20369;-80
2023/05/17 00:37:31;;;;;;;22.30;4.53;;;;;;;;;;6217087;23;20384;-79
2023/05/17 00:39:57;;;;;;;23.52;4.30;;;;;;;;;;6241300;23;20366;-79
2023/05/17 00:42:23;;;;;;;20.52;4.60;;;;;;;;;;6242374;23;20673;-80
2023/05/17 00:44:49;;;;;;;21.20;4.33;;;;;;;;;;6241956;23;20465;-76
2023/05/17 00:47:15;;;;;;;18.73;4.53;;;;;;;;;;6216935;23;20388;-76
2023/05/17 00:49:42;;;;;;;23.20;4.88;;;;;;;;;;6190781;23;20393;-77
2023/05/17 00:52:08;;;;;;;21.02;4.30;;;;;;;;;;6216596;23;20390;-77
2023/05/17 00:54:34;;;;;;;22.38;5.10;;;;;;;;;;6241847;23;20366;-75
2023/05/17 00:57:00;;;;;;;24.63;4.82;;;;;;;;;;6241138;23;20428;-76
2023/05/17 00:59:27;;;;;;;25.13;4.22;;;;;;;;;;6242267;23;20445;-77
2023/05/17 01:01:54;;;;;;;22.42;4.38;;;8.50;99.90;;;;;;6218088;23;20366;-77
2023/05/17 01:04:20;;;;;;;22.92;4.60;;;;;;;;;;6218400;23;20370;-76
2023/05/17 01:06:47;;;;;;;19.88;4.50;;;;;;;;;;6242856;23;20381;-76
2023/05/17 01:09:13;;;;;;;20.25;4.38;;;;;;;;;;6218676;23;20366;-78
2023/05/17 01:11:54;;;;;;;19.10;4.55;;;8.30;99.90;;;;;;6217341;23;20390;-76
2023/05/17 01:14:20;;;;;;;21.70;4.13;;;;;;;;;;6218304;23;20880;-76
2023/05/17 01:17:08;;;;;;;26.52;4.60;;;8.10;99.90;;;;;;6242056;23;20435;-76
2023/05/17 01:19:44;;;;;;;19.23;4.40;;;;;;;;;;6217317;23;20372;-76
2023/05/17 01:22:25;;;;;;;22.45;4.32;;;;;;;;;;6218255;23;20449;-79
2023/05/17 01:25:00;;;;;;;24.30;4.95;;;;;;;;;;6243791;23;20930;-80
2023/05/17 01:27:28;;;;;;;16.17;3.78;;;8.30;99.90;;;;;;6218492;23;20456;-79
2023/05/17 01:29:55;;;;;;;21.20;4.30;;;8.40;99.90;;;;;;6218149;23;20515;-80
2023/05/17 01:32:22;;;;;;;21.03;4.70;;;;;;;;;;6244709;23;20389;-79
2023/05/17 01:34:48;;;;;;;18.23;4.20;;;;;;;;;;6220312;23;20692;-80
2023/05/17 01:37:14;;;;;;;22.08;4.38;;;;;;;;;;6246553;23;20435;-80
2023/05/17 01:39:40;;;;;;;22.63;4.40;;;;;;;;;;6221542;23;20372;-79
2023/05/17 01:42:12;;;;;;;20.63;4.07;;;;;;;;;;6220492;23;20392;-80
2023/05/17 01:44:47;;;;;;;18.15;3.95;;;;;;;;;;6245636;23;20381;-80
2023/05/17 01:47:20;;;;;;;22.37;4.53;;;;;;;;;;6243943;23;20457;-80
2023/05/17 01:49:48;;;;;;;22.37;4.70;;;;;;;;;;6243712;23;20374;-79
2023/05/17 01:52:52;;;;;;;22.35;4.50;;;;;;;;;;6241920;23;20382;-77
2023/05/17 01:55:26;;;;;;;26.70;4.82;;;;;;;;;;6127129;23;20426;-77
2023/05/17 01:57:53;;;;;;;23.05;4.60;;;;;;;;;;6228054;23;20891;-77
2023/05/17 02:00:20;;;;;;;22.35;4.35;;;8.30;99.90;;;;;;6216521;23;20394;-77
2023/05/17 02:02:46;;;;;;;25.35;5.22;;;;;;;;;;6218518;23;20657;-77
2023/05/17 02:05:15;;;;;;;23.90;4.40;;;;;;;;;;6243681;23;20366;-79
2023/05/17 02:07:41;;;;;;;24.13;4.82;;;;;;;;;;6217750;23;20370;-79
2023/05/17 02:10:07;;;;;;;20.00;4.38;;;;;;;;;;6242040;23;20370;-80
2023/05/17 02:12:33;;;;;;;21.67;4.30;;;;;;;;;;6243403;23;20455;-80
2023/05/17 02:15:00;;;;;;;21.40;4.70;;;;;;;;;;6218040;23;20432;-79
2023/05/17 02:17:26;;;;;;;17.45;3.72;;;;;;;;;;6193576;23;20445;-79
2023/05/17 02:19:52;;;;;;;22.45;4.53;;;;;;;;;;6215914;23;20370;-79
2023/05/17 02:22:18;;;;;;;19.98;3.80;;;;;;;;;;6243683;23;20445;-79
2023/05/17 02:24:45;;;;;;;20.83;3.80;;;;;;;;;;6218348;23;20439;-80
2023/05/17 02:27:11;;;;;;;21.77;4.40;;;;;;;;;;6218805;23;20373;-79
2023/05/17 02:29:37;;;;;;;17.75;4.18;;;;;;;;;;6218112;23;20483;-78
2023/05/17 02:32:05;;;;;;;22.38;4.45;;;;;;;;;;6217814;23;20386;-78
2023/05/17 02:34:31;;;;;;;20.13;4.05;;;;;;;;;;6241407;23;20369;-77
2023/05/17 02:36:57;;;;;;;20.55;3.95;;;;;;;;;;6189741;23;20890;-79
2023/05/17 02:39:23;;;;;;;19.42;4.13;;;;;;;;;;6243454;23;20368;-79
2023/05/17 02:41:49;;;;;;;17.42;3.65;;;;;;;;;;6217498;23;20370;-79
2023/05/17 02:44:15;;;;;;;16.95;3.75;;;;;;;;;;6217931;23;20384;-79
2023/05/17 02:46:41;;;;;;;18.92;3.53;;;;;;;;;;6217775;23;20378;-79
2023/05/17 02:49:07;;;;;;;15.98;3.60;;;;;;;;;;6217706;23;20377;-80
2023/05/17 02:51:33;;;;;;;19.30;4.15;;;;;;;;;;6241154;23;20399;-79
2023/05/17 02:53:59;;;;;;;21.67;3.80;;;;;;;;;;6243078;23;20416;-80
2023/05/17 02:56:25;;;;;;;17.10;3.60;;;;;;;;;;6242166;23;20448;-79
2023/05/17 02:58:51;;;;;;;16.63;3.53;;;;;;;;;;6215687;23;20727;-78
2023/05/17 03:01:17;;;;;;;15.75;3.15;;;;;;;;;;6242747;23;20366;-79
2023/05/17 03:03:44;;;;;;;15.35;3.67;;;;;;;;;;6217329;23;20369;-79
2023/05/17 03:06:10;;;;;;;14.90;3.05;;;;;;;;;;6217831;23;20366;-78
2023/05/17 03:08:36;;;;;;;13.88;3.53;;;;;;;;;;6242956;23;20433;-78
2023/05/17 03:11:02;;;;;;;15.57;3.17;;;;;;;;;;6245575;23;20381;-77
2023/05/17 03:13:28;;;;;;;16.67;3.58;;;;;;;;;;6244568;23;20386;-78
2023/05/17 03:15:54;;;;;;;17.40;3.78;;;;;;;;;;6217294;23;20370;-78
2023/05/17 03:18:21;;;;;;;13.15;3.42;;;;;;;;;;6242184;23;20832;-77
2023/05/17 03:20:47;;;;;;;18.90;3.10;;;;;;;;;;6241193;23;20828;-77
2023/05/17 03:23:13;;;;;;;21.20;3.97;;;;;;;;;;6241512;23;20671;-77
2023/05/17 03:25:39;;;;;;;17.42;3.60;;;;;;;;;;6241481;23;20692;-77
2023/05/17 03:28:05;;;;;;;11.10;2.80;;;;;;;;;;6240880;23;20934;-77
2023/05/17 03:30:31;;;;;;;13.75;3.25;;;;;;;;;;6240817;23;20450;-78
2023/05/17 03:32:57;;;;;;;15.40;3.90;;;;;;;;;;6241125;23;20386;-78
2023/05/17 03:35:23;;;;;;;14.38;3.17;;;;;;;;;;6241827;23;20389;-78
2023/05/17 03:37:49;;;;;;;18.85;3.75;;;;;;;;;;6242722;23;20365;-77
2023/05/17 03:40:15;;;;;;;13.15;3.05;;;;;;;;;;6240689;23;20857;-77
2023/05/17 03:42:41;;;;;;;16.93;3.20;;;;;;;;;;6241782;23;20836;-76
2023/05/17 03:45:08;;;;;;;13.10;2.65;;;;;;;;;;6243096;23;20394;-76
2023/05/17 03:47:34;;;;;;;13.02;2.70;;;;;;;;;;6241042;23;20438;-78
2023/05/17 03:50:00;;;;;;;14.82;2.75;;;;;;;;;;6241435;23;20362;-78
2023/05/17 03:52:26;;;;;;;10.88;2.88;;;;;;;;;;6214259;23;20488;-78
2023/05/17 03:54:52;;;;;;;14.10;3.13;;;;;;;;;;6216644;23;20366;-78
2023/05/17 03:57:18;;;;;;;16.90;4.05;;;;;;;;;;6241783;23;20362;-78
2023/05/17 03:59:45;;;;;;;11.13;2.40;;;;;;;;;;6241214;23;20844;-78
2023/05/17 04:02:11;;;;;;;14.18;2.78;;;;;;;;;;6241752;23;20700;-78
2023/05/17 04:04:37;;;;;;;12.48;2.90;;;;;;;;;;6241660;23;20397;-78
2023/05/17 04:07:03;;;;;;;15.13;3.03;;;;;;;;;;6240066;23;20369;-76
2023/05/17 04:09:30;;;;;;;10.15;2.70;;;7.90;99.90;;;;;;6241610;23;20374;-77
2023/05/17 04:11:56;;;;;;;11.20;2.60;;;;;;;;;;6242041;23;20465;-77
2023/05/17 04:14:23;;;;;;;13.38;2.75;;;;;;;;;;6216259;23;20388;-77
2023/05/17 04:16:49;;;;;;;9.63;2.90;;;;;;;;;;6241557;23;20827;-77
2023/05/17 04:19:15;;;;;;;9.77;2.45;;;;;;;;;;6241738;23;20371;-76
2023/05/17 04:21:41;;;;;;;10.15;2.58;;;;;;;;;;6240109;23;20380;-76
2023/05/17 04:24:07;;;;;;;10.10;2.55;;;;;;;;;;6217175;23;20839;-77
2023/05/17 04:26:33;;;;;;;10.05;2.35;;;;;;;;;;6215323;23;20377;-77
2023/05/17 04:29:00;;;;;;;12.25;2.63;;;;;;;;;;6241247;23;20433;-77
2023/05/17 04:31:26;;;;;;;11.67;2.70;;;;;;;;;;6240944;23;20632;-77
2023/05/17 04:33:52;;;;;;;12.02;2.90;;;;;;;;;;6242474;23;20365;-77
2023/05/17 04:36:18;;;;;;;11.35;2.85;;;;;;;;;;6216869;23;20366;-77
2023/05/17 04:38:45;;;;;;;11.77;2.90;;;;;;;;;;6242974;23;20366;-78
2023/05/17 04:41:11;;;;;;;14.70;3.50;;;;;;;;;;6218315;23;20400;-77
2023/05/17 04:43:37;;;;;;;12.47;2.63;;;;;;;;;;6243995;23;20362;-77
2023/05/17 04:46:04;;;;;;;15.18;2.92;;;;;;;;;;6242704;23;20370;-77
2023/05/17 04:48:31;;;;;;;9.93;2.50;;;;;;;;;;6217915;23;20469;-78
2023/05/17 04:51:01;;;;;;;10.30;3.00;;;;;;;;;;6217154;23;20464;-77
2023/05/17 04:53:27;;;;;;;14.55;3.10;;;;;;;;;;6243849;23;20389;-77
2023/05/17 04:55:53;;;;;;;11.30;2.43;;;;;;;;;;6242391;23;20484;-77
2023/05/17 04:58:19;;;;;;;9.95;2.47;;;;;;;;;;6242969;23;20369;-78
2023/05/17 05:00:45;;;;;;;10.25;2.60;;;;;;;;;;6241957;23;20423;-77
2023/05/17 05:03:11;;;;;;;9.10;2.25;;;;;;;;;;6243228;23;20370;-77
2023/05/17 05:05:37;;;;;;;9.00;1.95;;;;;;;;;;6217003;23;20378;-77
2023/05/17 05:08:03;;;;;;;10.20;2.58;;;;;;;;;;6242470;23;20684;-76
2023/05/17 05:10:29;;;;;;;10.73;2.28;;;;;;;;;;6243633;23;20449;-76
2023/05/17 05:12:56;;;;;;;10.65;2.25;;;;;;;;;;6243016;23;20464;-76
2023/05/17 05:15:23;;;;;;;11.43;2.58;;;;;;;;;;6215785;23;20440;-77
2023/05/17 05:17:49;;;;;;;10.77;2.40;;;;;;;;;;6217386;23;20362;-77
2023/05/17 05:20:16;;;;;;;9.98;2.22;;;;;;;;;;6217657;23;20448;-74
2023/05/17 05:22:42;;;;;;;9.35;2.05;;;;;;;;;;6216765;23;20373;-72
2023/05/17 05:25:08;;;;;;;12.15;2.38;;;;;;;;;;6241753;23;20424;-73
2023/05/17 05:27:34;;;;;;;10.37;2.10;;;;;;;;;;6240763;23;20369;-73
2023/05/17 05:30:01;;;;;;;8.85;2.10;;;;;;;;;;6241917;23;20393;-75
2023/05/17 05:32:27;;;;;;;12.63;2.40;;;;;;;;;;6239992;23;20870;-75
2023/05/17 05:34:53;;;;;;;9.98;2.05;;;;;;;;;;6239845;23;20402;-74
2023/05/17 05:37:19;;;;;;;12.98;2.50;;;;;;;;;;6243217;23;20405;-75
2023/05/17 05:39:45;;;;;;;12.33;2.23;;;;;;;;;;6242016;23;20454;-75
2023/05/17 05:42:11;;;;;;;10.05;2.35;;;;;;;;;;6244561;23;20854;-75
2023/05/17 05:44:38;;;;;;;11.80;2.58;;;;;;;;;;6244077;23;20385;-74
2023/05/17 05:47:04;;;;;;;9.65;2.00;;;;;;;;;;6243604;23;20870;-74
2023/05/17 05:49:30;;;;;;;9.07;2.15;;;;;;;;;;6241523;23;20366;-75
2023/05/17 05:51:56;;;;;;;12.93;2.47;;;;;;;;;;6217598;23;20391;-76
2023/05/17 05:54:22;;;;;;;11.97;2.40;;;;;;;;;;6216221;23;20370;-76
2023/05/17 05:56:50;;;;;;;10.57;2.35;;;;;;;;;;6240839;23;20358;-77
2023/05/17 05:59:16;;;;;;;13.30;2.28;;;;;;;;;;6242597;23;20840;-77
2023/05/17 06:01:42;;;;;;;9.75;2.38;;;;;;;;;;6217353;23;20377;-77
2023/05/17 06:04:08;;;;;;;11.57;2.53;;;;;;;;;;6241962;23;20365;-77
2023/05/17 06:06:35;;;;;;;11.05;2.40;;;;;;;;;;6215807;23;20431;-76
2023/05/17 06:09:01;;;;;;;13.20;2.65;;;;;;;;;;6215613;23;20440;-76
2023/05/17 06:11:27;;;;;;;13.70;2.42;;;;;;;;;;6240867;23;20370;-76
2023/05/17 06:13:53;;;;;;;12.97;2.80;;;;;;;;;;6216292;23;20409;-76
2023/05/17 06:16:19;;;;;;;9.18;2.42;;;;;;;;;;6242314;23;20832;-76
2023/05/17 06:18:45;;;;;;;13.38;2.92;;;;;;;;;;6216262;23;20735;-77
2023/05/17 06:21:14;;;;;;;11.55;2.30;;;;;;;;;;6216508;23;20666;-77
2023/05/17 06:23:40;;;;;;;12.82;3.00;;;;;;;;;;6242819;22;20358;-77
2023/05/17 06:26:09;;;;;;;13.00;2.67;;;;;;;;;;6242158;23;20475;-77
2023/05/17 06:28:35;;;;;;;11.60;2.72;;;;;;;;;;6241518;23;20684;-76
2023/05/17 06:31:01;;;;;;;13.73;2.92;;;;;;;;;;6239911;23;20373;-77
2023/05/17 06:33:27;;;;;;;12.73;3.50;;;;;;;;;;6242350;23;20442;-77
2023/05/17 06:35:54;;;;;;;11.60;2.47;;;11.00;99.90;;;;;;6240928;23;20903;-77
2023/05/17 06:38:20;;;;;;;9.75;2.50;;;;;;;;;;6240144;23;20714;-77
2023/05/17 06:40:46;;;;;;;14.05;2.90;;;;;;;;;;6242965;23;20366;-77
2023/05/17 06:43:12;;;;;;;17.33;3.10;;;;;;;;;;6217231;23;20721;-77
2023/05/17 06:45:38;;;;;;;15.25;3.08;;;;;;;;;;6242884;23;20456;-78
2023/05/17 06:48:04;;;;;;;16.38;2.60;;;;;;;;;;6244339;23;20365;-78
2023/05/17 06:50:30;;;;;;;13.65;2.67;;;;;;;;;;6242552;23;20370;-77
2023/05/17 06:52:56;;;;;;;17.02;3.00;;;;;;;;;;6218105;23;20390;-78
2023/05/17 06:55:22;;;;;;;11.63;2.72;;;;;;;;;;6214222;23;20521;-77
2023/05/17 06:57:49;;;;;;;11.90;2.60;;;;;;;;;;6239292;23;20389;-78
2023/05/17 07:00:15;;;;;;;11.43;2.58;;;;;;;;;;6240855;23;20404;-78
2023/05/17 07:02:41;;;;;;;10.30;2.47;;;;;;;;;;6241434;23;20369;-78
2023/05/17 07:05:07;;;;;;;14.18;3.00;;;;;;;;;;6215610;23;20745;-76
2023/05/17 07:07:33;;;;;;;10.10;2.30;;;;;;;;;;6240027;23;20844;-76
2023/05/17 07:09:59;;;;;;;13.40;3.25;;;;;;;;;;6242741;23;20649;-76
2023/05/17 07:12:25;;;;;;;18.45;3.30;;;;;;;;;;6241439;23;20496;-77
2023/05/17 07:14:51;;;;;;;13.40;2.80;;;;;;;;;;6242444;23;20408;-77
2023/05/17 07:17:18;;;;;;;13.10;2.85;;;;;;;;;;6239474;23;20366;-75
2023/05/17 07:19:44;;;;;;;14.10;3.37;;;;;;;;;;6217004;23;20451;-76
2023/05/17 07:22:11;;;;;;;13.95;2.92;;;;;;;;;;6213869;23;20393;-76
2023/05/17 07:24:37;;;;;;;13.88;3.03;;;;;;;;;;6241465;23;20404;-76
2023/05/17 07:27:03;;;;;;;15.13;2.90;;;;;;;;;;6213360;23;20662;-76
2023/05/17 07:29:29;;;;;;;16.03;2.73;;;;;;;;;;6213849;23;20722;-76
2023/05/17 07:31:55;;;;;;;12.65;2.83;;;;;;;;;;6240685;23;20386;-76
2023/05/17 07:34:21;;;;;;;10.43;2.40;;;;;;;;;;6238488;23;20362;-76
2023/05/17 07:36:47;;;;;;;9.90;2.50;;;;;;;;;;6240340;23;20393;-75
2023/05/17 07:39:13;;;;;;;11.73;2.47;;;;;;;;;;6241263;23;20366;-75
2023/05/17 07:41:39;;;;;;;12.65;2.65;;;;;;;;;;6242250;23;20428;-75
2023/05/17 07:44:05;;;;;;;10.23;2.40;;;;;;;;;;6215372;23;20370;-75
2023/05/17 07:46:31;;;;;;;9.00;2.42;;;;;;;;;;6241235;23;20409;-75
2023/05/17 07:48:57;;;;;;;13.20;2.50;;;;;;;;;;6241930;23;20388;-76
2023/05/17 07:51:23;;;;;;;11.77;2.35;;;;;;;;;;6214376;23;20369;-76
2023/05/17 07:53:50;;;;;;;13.75;2.72;;;;;;;;;;6241183;23;20366;-75
2023/05/17 07:56:16;;;;;;;14.70;2.67;;;;;;;;;;6241318;23;20453;-75
2023/05/17 07:58:42;;;;;;;15.00;2.70;;;;;;;;;;6240442;23;20377;-75
2023/05/17 08:01:08;;;;;;;10.73;2.70;;;;;;;;;;6239422;23;20366;-78
2023/05/17 08:03:35;;;;;;;11.20;2.60;;;;;;;;;;6241021;23;20431;-76
2023/05/17 08:06:01;;;;;;;11.52;2.30;;;;;;;;;;6239185;23;20831;-76
2023/05/17 08:08:27;;;;;;;10.82;2.50;;;;;;;;;;6239470;23;20370;-76
2023/05/17 08:10:53;;;;;;;12.43;2.70;;;;;;;;;;6238238;23;20700;-76
2023/05/17 08:13:19;;;;;;;8.43;2.38;;;;;;;;;;6241347;23;20393;-75
2023/05/17 08:15:45;;;;;;;12.45;2.65;;;;;;;;;;6239517;23;20377;-76
2023/05/17 08:18:11;;;;;;;12.23;2.45;;;;;;;;;;6239089;23;20366;-76
2023/05/17 08:20:37;;;;;;;13.98;3.20;;;;;;;;;;6239277;23;20433;-76
2023/05/17 08:23:03;;;;;;;15.07;2.90;;;;;;;;;;6213903;23;20366;-75
2023/05/17 08:25:30;;;;;;;11.55;2.50;;;;;;;;;;6239381;23;20843;-77
2023/05/17 08:27:56;;;;;;;12.03;2.60;;;;;;;;;;6239429;23;20358;-75
2023/05/17 08:30:22;;;;;;;10.75;2.90;;;;;;;;;;6216096;23;20377;-75
2023/05/17 08:32:48;;;;;;;12.38;2.53;;;;;;;;;;6239492;23;20386;-75
2023/05/17 08:35:14;;;;;;;12.48;2.50;;;;;;;;;;6240769;23;20393;-75
2023/05/17 08:37:41;;;;;;;12.80;2.65;;;;;;;;;;6239489;23;20449;-75
2023/05/17 08:40:08;;;;;;;14.98;2.60;;;;;;;;;;6241269;23;20461;-75
2023/05/17 08:42:34;;;;;;;17.15;3.10;;;;;;;;;;6212872;23;20370;-75
2023/05/17 08:45:00;;;;;;;14.82;2.92;;;;;;;;;;6213747;23;20720;-75
2023/05/17 08:47:32;;;;;;;14.50;3.45;;;11.40;99.90;;;;;;6238976;23;20374;-74
2023/05/17 08:49:59;;;;;;;12.35;3.00;;;11.90;99.90;;;;;;6211637;23;20495;-74
2023/05/17 08:52:30;;;;;;;15.63;3.17;;;;;;;;;;6240392;23;20689;-75
2023/05/17 08:54:56;;;;;;;12.47;3.20;;;;;;;;;;6239422;23;20545;-74
2023/05/17 08:57:24;;;;;;;11.82;2.70;;;;;;;;;;6238328;23;20365;-74
2023/05/17 08:59:51;;;;;;;12.43;2.70;;;;;;;;;;6237791;23;20362;-74
2023/05/17 09:02:17;;;;;;;11.45;2.50;;;12.00;99.90;;;;;;6215085;23;20369;-75
2023/05/17 09:04:43;;;;;;;9.87;2.70;;;;;;;;;;6237035;23;20472;-74
2023/05/17 09:07:09;;;;;;;12.05;2.13;;;12.20;99.90;;;;;;6213819;23;20369;-75
2023/05/17 09:09:35;;;;;;;12.23;2.93;;;;;;;;;;6212473;23;20668;-74
2023/05/17 09:12:03;;;;;;;12.40;2.88;;;;;;;;;;6237158;23;20929;-74
2023/05/17 09:14:35;;;;;;;12.48;2.47;;;;;;;;;;6235343;23;20385;-75
2023/05/17 09:17:01;;;;;;;11.75;2.72;;;;;;;;;;6235712;23;20879;-75
2023/05/17 09:19:27;;;;;;;13.18;2.30;;;;;;;;;;6238225;23;20393;-75
2023/05/17 09:21:54;;;;;;;11.65;2.60;;;;;;;;;;6239597;23;20417;-75
2023/05/17 09:24:29;;;;;;;10.57;2.22;;;12.40;99.90;;;;;;6241322;23;20424;-75
2023/05/17 09:27:02;;;;;;;12.37;2.40;;;12.30;99.90;;;;;;6241901;23;20373;-76
2023/05/17 09:29:30;;;;;;;10.23;2.03;;;;;;;;;;6243275;22;20740;-75
2023/05/17 09:31:55;;;;;;;8.73;2.38;;;12.30;99.90;;;;;;6215172;23;20394;-75
2023/05/17 09:34:23;;;;;;;10.40;2.30;;;12.70;99.90;;;;;;6241717;23;20362;-75
2023/05/17 09:36:50;;;;;;;11.85;2.60;;;;;;;;;;6242134;23;20399;-75
2023/05/17 09:39:16;;;;;;;10.55;2.78;;;;;;;;;;6241177;23;20373;-74
2023/05/17 09:41:45;;;;;;;10.73;2.75;;;12.60;99.90;;;;;;6240091;23;20376;-75
2023/05/17 09:44:11;;;;;;;9.90;2.33;;;;;;;;;;6241526;23;20370;-75
2023/05/17 09:46:41;;;;;;;7.13;1.88;;;12.70;99.90;;;;;;6216998;23;20382;-75
2023/05/17 09:49:08;;;;;;;9.32;2.38;;;;;;;;;;6215189;23;20452;-75
2023/05/17 09:51:34;;;;;;;13.00;2.60;;;;;;;;;;6240194;23;20366;-75
2023/05/17 09:54:00;;;;;;;10.43;2.20;;;13.00;99.90;;;;;;6239304;23;20372;-75
2023/05/17 09:56:30;;;;;;;9.35;2.50;;;;;;;;;;6237687;22;20431;-75
2023/05/17 09:58:57;;;;;;;10.38;2.50;;;;;;;;;;6238884;23;20401;-75
2023/05/17 10:01:26;;;;;;;10.23;2.10;;;13.60;99.90;;;;;;6241231;23;20692;-75
2023/05/17 10:03:53;;;;;;;11.82;2.55;;;;;;;;;;6239665;23;20369;-74
2023/05/17 10:06:21;;;;;;;9.73;2.00;;;;;;;;;;6240310;23;20373;-75
2023/05/17 10:08:50;;;;;;;8.73;2.25;;;;;;;;;;6237750;23;20401;-75
2023/05/17 10:11:17;;;;;;;10.32;2.30;;;;;;;;;;6242259;23;20424;-75
2023/05/17 10:13:47;;;;;;;10.27;2.20;;;;;;;;;;6243485;23;20953;-74
2023/05/17 10:16:14;;;;;;;9.48;2.00;;;;;;;;;;6241897;23;20374;-75
2023/05/17 10:18:40;;;;;;;8.20;2.43;;;;;;;;;;6242043;23;20369;-74
2023/05/17 10:21:07;;;;;;;6.68;1.85;;;;;;;;;;6241936;23;20366;-75
2023/05/17 10:23:34;;;;;;;8.32;2.05;;;;;;;;;;6239769;23;20370;-75
2023/05/17 10:26:01;;;;;;;10.68;2.10;;;13.50;99.90;;;;;;6241653;23;20377;-75
2023/05/17 10:28:27;;;;;;;8.35;1.95;;;;;;;;;;6217055;23;20691;-75
2023/05/17 10:30:54;;;;;;;9.20;2.33;;;13.60;99.90;;;;;;6241109;23;20448;-74
2023/05/17 10:33:21;;;;;;;10.85;2.30;;;;;;;;;;6240687;23;20963;-75
2023/05/17 10:35:49;;;;;;;8.40;1.90;;;;;;;;;;6241976;23;20673;-74
2023/05/17 10:38:16;;;;;;;9.77;2.30;;;;;;;;;;6241033;23;20370;-74
2023/05/17 10:40:43;;;;;;;9.98;2.30;;;;;;;;;;6244386;22;20823;-74
2023/05/17 10:43:10;;;;;;;9.68;2.50;;;;;;;;;;6240055;23;20441;-74
2023/05/17 10:45:36;;;;;;;9.45;2.25;;;;;;;;;;6243108;22;20366;-75
2023/05/17 10:48:06;;;;;;;9.47;2.50;;;;;;;;;;6240590;23;21097;-75
2023/05/17 10:50:32;;;;;;;7.85;2.10;;;;;;;;;;6240687;23;20362;-75
2023/05/17 10:52:59;;;;;;;8.70;2.45;;;;;;;;;;6240925;23;20413;-75
2023/05/17 10:55:36;;;;;;;8.73;2.23;;;;;;;;;;6241458;23;20886;-75
2023/05/17 10:58:18;;;;;;;11.33;2.37;;;;;;;;;;6243349;23;20447;-74
2023/05/17 11:00:48;;;;;;;11.18;2.47;;;;;;;;;;6244501;23;20444;-74
2023/05/17 11:03:19;;;;;;;9.70;2.50;;;13.90;99.90;;;;;;6240698;23;20381;-75
2023/05/17 11:06:05;;;;;;;9.35;2.20;;;;;;;;;;6242522;23;20449;-76
2023/05/17 11:08:32;;;;;;;9.73;2.33;;;14.20;99.90;;;;;;6214385;23;20404;-75
2023/05/17 11:11:08;;;;;;;8.18;2.20;;;;;;;;;;6241119;23;20366;-75
2023/05/17 11:13:43;;;;;;;10.27;2.47;;;14.00;99.90;;;;;;6238984;23;20472;-75
2023/05/17 11:16:10;;;;;;;9.40;2.38;;;;;;;;;;6238729;23;20381;-75
2023/05/17 11:18:52;;;;;;;10.07;2.47;;;14.10;99.90;;;;;;6216567;23;20368;-75
2023/05/17 11:21:21;;;;;;;11.43;2.20;;;14.00;99.90;;;;;;6214115;23;20393;-75
2023/05/17 11:23:53;;;;;;;14.02;2.63;;;13.90;99.90;;;;;;6240343;23;20824;-75
2023/05/17 11:26:31;;;;;;;11.75;2.35;;;14.10;99.90;;;;;;6239639;23;20435;-75
2023/05/17 11:29:01;;;;;;;7.75;2.10;;;;;;;;;;6214081;23;20373;-76
2023/05/17 11:31:32;;;;;;;7.63;2.03;;;14.10;99.90;;;;;;6239087;23;20366;-75
2023/05/17 11:34:01;;;;;;;8.60;2.50;;;;;;;;;;6213187;23;20369;-76
2023/05/17 11:36:27;;;;;;;14.27;2.72;;;;;;;;;;6240797;23;20366;-75
2023/05/17 11:39:10;;;;;;;10.27;2.20;;;;;;;;;;6239484;23;20376;-75
2023/05/17 11:41:40;;;;;;;13.40;2.47;;;13.70;99.90;;;;;;6240460;23;20827;-75
2023/05/17 11:44:07;;;;;;;8.73;2.47;;;;;;;;;;6212045;23;20809;-75
2023/05/17 11:46:34;;;;;;;10.15;2.80;;;;;;;;;;6240967;23;20942;-75
2023/05/17 11:49:01;;;;;;;11.48;2.50;;;;;;;;;;6214420;23;20684;-75
2023/05/17 11:51:29;;;;;;;9.85;2.42;;;14.40;99.90;;;;;;6239886;23;20366;-75
2023/05/17 11:53:56;;;;;;;11.48;2.80;;;;;;;;;;6242292;22;20926;-75
2023/05/17 11:56:23;;;;;;;9.73;2.55;;;;;;;;;;6240386;23;20373;-75
2023/05/17 11:58:53;;;;;;;10.18;2.42;;;14.30;99.90;;;;;;6214989;23;20365;-75
2023/05/17 12:01:18;;;;;;;10.18;2.20;;;14.30;99.90;;;;;;6214606;23;20412;-75
2023/05/17 12:03:46;;;;;;;8.88;2.28;;;;;;;;;;6240557;23;20380;-75
2023/05/17 12:06:16;;;;;;;11.55;2.67;;;15.00;99.90;;;;;;6240471;23;20370;-75
2023/05/17 12:08:44;;;;;;;9.27;2.50;;;14.70;99.90;;;;;;6229223;23;20409;-76
2023/05/17 12:11:12;;;;;;;9.18;2.35;;;;;;;;;;6238614;23;20373;-76
2023/05/17 12:13:41;;;;;;;10.90;2.53;;;;;;;;;;6239541;23;20397;-76
2023/05/17 12:16:09;;;;;;;9.73;2.30;;;;;;;;;;6215327;23;20465;-76
2023/05/17 12:18:35;;;;;;;9.55;2.00;;;;;;;;;;6239255;23;20369;-75
2023/05/17 12:21:01;;;;;;;11.13;2.50;;;;;;;;;;6239765;23;20358;-75
2023/05/17 12:23:29;;;;;;;9.93;2.30;;;;;;;;;;6213179;23;20376;-75
2023/05/17 12:26:05;;;;;;;10.77;2.20;;;;;;;;;;6239195;23;20378;-75
2023/05/17 12:28:33;;;;;;;8.20;2.38;;;;;;;;;;6238210;23;20370;-75
2023/05/17 12:31:03;;;;;;;8.98;2.00;;;14.60;99.90;;;;;;6240669;23;20374;-75
2023/05/17 12:33:30;;;;;;;7.63;1.73;;;;;;;;;;6216028;23;20396;-75
2023/05/17 12:35:56;;;;;;;9.48;2.50;;;14.20;99.90;;;;;;6239641;23;20370;-75
2023/05/17 12:38:23;;;;;;;9.60;2.13;;;14.10;99.90;;;;;;6240103;23;20416;-75
2023/05/17 12:40:49;;;;;;;9.80;2.30;;;14.00;99.90;;;;;;6241095;22;20358;-75
2023/05/17 12:43:17;;;;;;;7.85;2.17;;;;;;;;;;6240089;23;20370;-75
2023/05/17 12:45:43;;;;;;;8.55;2.10;;;;;;;;;;6238642;23;20377;-75
2023/05/17 12:48:09;;;;;;;9.13;2.30;;;;;;;;;;6216495;23;20365;-75
2023/05/17 12:50:35;;;;;;;8.63;2.10;;;;;;;;;;6237906;23;20444;-75
2023/05/17 12:53:07;;;;;;;7.95;1.83;;;14.30;99.90;;;;;;6241685;23;20465;-75
2023/05/17 12:55:37;;;;;;;6.90;2.03;;;;;;;;;;6242218;23;20400;-75
2023/05/17 12:58:03;;;;;;;8.13;2.33;;;;;;;;;;6239309;23;20366;-75
2023/05/17 13:00:29;;;;;;;7.40;1.90;;;14.50;99.90;;;;;;6217215;23;20831;-75
2023/05/17 13:02:55;;;;;;;7.72;2.08;;;14.40;99.90;;;;;;6244494;23;20369;-75
2023/05/17 13:05:22;;;;;;;7.53;2.00;;;;;;;;;;6243387;23;20843;-75
2023/05/17 13:07:48;;;;;;;7.88;1.85;;;;;;;;;;6241848;23;20402;-75
2023/05/17 13:10:27;;;;;;;7.68;2.28;;;14.50;99.90;;;;;;6241659;23;20439;-75
2023/05/17 13:12:56;;;;;;;7.95;2.20;;;;;;;;;;6242604;23;20389;-73
2023/05/17 13:15:44;;;;;;;11.05;2.60;;;14.40;99.90;;;;;;6242439;23;20843;-73
2023/05/17 13:18:16;;;;;;;9.70;2.20;;;14.70;99.90;;;;;;6242277;23;20665;-74
2023/05/17 13:20:43;;;;;;;7.63;2.05;;;;;;;;;;6241079;23;20366;-74
2023/05/17 13:23:09;;;;;;;8.33;2.07;;;;;;;;;;6240677;23;20670;-74
2023/05/17 13:25:35;;;;;;;9.23;2.05;;;14.70;99.90;;;;;;6189123;23;20721;-73
2023/05/17 13:28:01;;;;;;;7.07;1.90;;;;;;;;;;6241350;23;20424;-74
2023/05/17 13:30:28;;;;;;;6.67;1.80;;;;;;;;;;6240491;23;20432;-73
2023/05/17 13:32:55;;;;;;;8.02;2.03;;;;;;;;;;6239853;23;20719;-73
2023/05/17 13:35:21;;;;;;;11.15;2.00;;;;;;;;;;6214947;23;20370;-74
2023/05/17 13:37:47;;;;;;;10.18;2.20;;;15.00;99.90;;;;;;6241205;23;20892;-74
2023/05/17 13:40:13;;;;;;;6.88;2.13;;;;;;;;;;6240118;23;20403;-73
2023/05/17 13:42:39;;;;;;;8.80;2.15;;;15.40;99.90;;;;;;6241938;23;20509;-73
2023/05/17 13:45:07;;;;;;;7.00;2.00;;;15.60;99.60;;;;;;6242250;23;20400;-73
2023/05/17 13:47:34;;;;;;;9.27;1.98;;;15.30;99.90;;;;;;6243902;23;20381;-72
2023/05/17 13:50:02;;;;;;;7.07;2.20;;;;;;;;;;6244533;22;20362;-74
2023/05/17 13:52:28;;;;;;;8.05;2.00;;;;;;;;;;6240855;23;20382;-74
2023/05/17 13:54:54;;;;;;;6.85;2.30;;;15.10;99.90;;;;;;6243833;22;20429;-73
2023/05/17 13:57:20;;;;;;;8.52;2.25;;;;;;;;;;6241643;23;20365;-74
2023/05/17 13:59:46;;;;;;;7.38;2.30;;;;;;;;;;6216469;23;20502;-74
2023/05/17 14:02:12;;;;;;;8.52;2.45;;;14.80;99.90;;;;;;6241830;23;20366;-74
2023/05/17 14:04:38;;;;;;;8.40;2.10;;;14.90;99.90;;;;;;6242416;23;20361;-74
2023/05/17 14:07:04;;;;;;;10.57;2.50;;;;;;;;;;6240098;23;20362;-74
2023/05/17 14:09:32;;;;;;;9.95;2.95;;;;;;;;;;6241338;23;20431;-74
2023/05/17 14:11:58;;;;;;;9.20;2.27;;;;;;;;;;6241604;23;20855;-74
2023/05/17 14:14:26;;;;;;;8.52;2.25;;;;;;;;;;6239752;23;20460;-74